Phoenix, Arizona
Traffic Map
Current Weather Conditions
Phoenix, Arizona
Clear
Clear
23°
Feels Like: 23°
Wind Chill: 23° Ceiling: Unl
Heat Index: 23° Visibility: 10mi
Dew Point: 13° Wind: 6mph
Humidity: 52% Direction: 90° (E)
Pressure: 29.85in Gusts: 0mph
Raw Report DataKPHX 210651Z 09005KT 10SM CLR 23/13 A2985 RMK AO2 SLP091 T02330128 403220189
Traffic Incident Summary
Active as of:
Severity:
Category:
InformationThere was an issue retrieving the traffic information for this location. Please try a different location or try again shortly.
Advertisements
Track Severe Weather on mobile